sensor_id;sensor_type;location;lat;lon;timestamp;temperature;humidity
9450;DHT22;4763;48.370;10.874;2022-09-09T04:42:22;13.40;99.90
9450;DHT22;4763;48.370;10.874;2022-09-09T04:44:49;13.50;99.90
9450;DHT22;4763;48.370;10.874;2022-09-09T05:02:52;13.60;99.90
9450;DHT22;4763;48.370;10.874;2022-09-09T05:05:19;13.60;99.90
9450;DHT22;4763;48.370;10.874;2022-09-09T05:10:17;13.70;99.90
9450;DHT22;4763;48.370;10.874;2022-09-09T05:12:52;13.80;99.90
9450;DHT22;4763;48.370;10.874;2022-09-09T05:15:20;13.90;99.90
9450;DHT22;4763;48.370;10.874;2022-09-09T05:23:04;14.00;99.90
9450;DHT22;4763;48.370;10.874;2022-09-09T05:25:31;14.10;99.90
9450;DHT22;4763;48.370;10.874;2022-09-09T05:33:37;14.10;99.90
9450;DHT22;4763;48.370;10.874;2022-09-09T05:36:11;14.10;99.90
9450;DHT22;4763;48.370;10.874;2022-09-09T10:52:26;19.70;99.90
9450;DHT22;4763;48.370;10.874;2022-09-09T11:04:13;19.60;99.90
9450;DHT22;4763;48.370;10.874;2022-09-09T11:12:59;19.70;99.90
9450;DHT22;4763;48.370;10.874;2022-09-09T11:16:20;19.70;99.90
9450;DHT22;4763;48.370;10.874;2022-09-09T12:56:24;20.80;99.90
9450;DHT22;4763;48.370;10.874;2022-09-09T12:58:53;20.90;99.90
9450;DHT22;4763;48.370;10.874;2022-09-09T13:01:24;21.10;99.90
9450;DHT22;4763;48.370;10.874;2022-09-09T13:03:52;21.40;99.90
9450;DHT22;4763;48.370;10.874;2022-09-09T13:06:21;21.60;99.90
9450;DHT22;4763;48.370;10.874;2022-09-09T18:09:57;17.10;99.90
9450;DHT22;4763;48.370;10.874;2022-09-09T18:12:26;16.70;99.90
9450;DHT22;4763;48.370;10.874;2022-09-09T18:14:55;16.10;99.90
9450;DHT22;4763;48.370;10.874;2022-09-09T21:33:12;14.40;99.90
9450;DHT22;4763;48.370;10.874;2022-09-09T21:35:44;14.40;99.90
9450;DHT22;4763;48.370;10.874;2022-09-09T21:40:48;14.30;99.90
9450;DHT22;4763;48.370;10.874;2022-09-09T21:43:18;14.30;99.90
9450;DHT22;4763;48.370;10.874;2022-09-09T21:45:48;14.20;99.90
9450;DHT22;4763;48.370;10.874;2022-09-09T21:48:17;14.40;99.90
9450;DHT22;4763;48.370;10.874;2022-09-09T21:50:47;14.30;99.90
9450;DHT22;4763;48.370;10.874;2022-09-09T21:53:15;14.20;99.90
9450;DHT22;4763;48.370;10.874;2022-09-09T21:55:46;14.20;99.90
9450;DHT22;4763;48.370;10.874;2022-09-09T22:00:44;14.20;99.90
9450;DHT22;4763;48.370;10.874;2022-09-09T22:03:13;14.20;99.90
9450;DHT22;4763;48.370;10.874;2022-09-09T22:05:44;14.20;99.90
9450;DHT22;4763;48.370;10.874;2022-09-09T22:10:53;14.20;99.90
9450;DHT22;4763;48.370;10.874;2022-09-09T22:13:20;14.20;99.90
9450;DHT22;4763;48.370;10.874;2022-09-09T22:15:47;14.10;99.90
9450;DHT22;4763;48.370;10.874;2022-09-09T22:21:07;14.00;99.90
9450;DHT22;4763;48.370;10.874;2022-09-09T22:23:35;14.10;99.90
9450;DHT22;4763;48.370;10.874;2022-09-09T22:26:03;14.00;99.90
9450;DHT22;4763;48.370;10.874;2022-09-09T22:28:30;14.10;99.90
9450;DHT22;4763;48.370;10.874;2022-09-09T22:30:57;14.00;99.90
9450;DHT22;4763;48.370;10.874;2022-09-09T22:33:24;14.00;99.90
9450;DHT22;4763;48.370;10.874;2022-09-09T22:35:51;14.10;99.90
9450;DHT22;4763;48.370;10.874;2022-09-09T22:40:57;14.00;99.90
9450;DHT22;4763;48.370;10.874;2022-09-09T22:43:26;13.90;99.90
9450;DHT22;4763;48.370;10.874;2022-09-09T22:45:53;14.00;99.90
9450;DHT22;4763;48.370;10.874;2022-09-09T22:50:49;13.90;99.90
9450;DHT22;4763;48.370;10.874;2022-09-09T22:53:17;13.90;99.90
9450;DHT22;4763;48.370;10.874;2022-09-09T22:55:56;13.90;99.90
9450;DHT22;4763;48.370;10.874;2022-09-09T22:58:24;13.90;99.90
9450;DHT22;4763;48.370;10.874;2022-09-09T23:00:52;13.90;99.90
9450;DHT22;4763;48.370;10.874;2022-09-09T23:04:05;13.80;99.90
9450;DHT22;4763;48.370;10.874;2022-09-09T23:07:42;13.70;99.90
9450;DHT22;4763;48.370;10.874;2022-09-09T23:10:30;13.70;99.90
9450;DHT22;4763;48.370;10.874;2022-09-09T23:13:53;13.60;99.90
9450;DHT22;4763;48.370;10.874;2022-09-09T23:17:05;13.50;99.90
9450;DHT22;4763;48.370;10.874;2022-09-09T23:20:11;13.50;99.90
9450;DHT22;4763;48.370;10.874;2022-09-09T23:23:13;13.40;99.90
9450;DHT22;4763;48.370;10.874;2022-09-09T23:37:07;13.40;99.90
9450;DHT22;4763;48.370;10.874;2022-09-09T23:39:56;13.40;99.90
9450;DHT22;4763;48.370;10.874;2022-09-09T23:46:40;13.40;99.90
